createdAt,value
2018-07-30T00:01:08.985Z,97.80
2018-07-30T00:03:37.525Z,98.00
2018-07-30T00:06:06.079Z,98.60
2018-07-30T00:08:34.589Z,98.80
2018-07-30T00:11:03.224Z,98.70
2018-07-30T00:13:31.761Z,98.80
2018-07-30T00:16:00.403Z,99.20
2018-07-30T00:18:28.938Z,99.30
2018-07-30T00:20:57.531Z,99.70
2018-07-30T00:23:26.033Z,99.80
2018-07-30T00:25:54.568Z,99.90
2018-07-30T00:30:51.271Z,99.90
2018-07-30T00:33:19.785Z,99.90
2018-07-30T00:35:48.951Z,99.90
2018-07-30T00:38:17.498Z,99.90
2018-07-30T00:40:46.047Z,99.90
2018-07-30T00:43:14.538Z,99.90
2018-07-30T00:45:43.076Z,99.90
2018-07-30T00:48:11.693Z,99.90
2018-07-30T00:50:40.202Z,99.90
2018-07-30T00:55:36.947Z,99.90
2018-07-30T01:00:33.737Z,99.90
2018-07-30T01:03:02.281Z,99.90
2018-07-30T01:05:30.777Z,99.90
2018-07-30T01:10:27.555Z,99.90
2018-07-30T01:12:56.187Z,99.90
2018-07-30T01:15:24.729Z,99.90
2018-07-30T01:17:53.289Z,99.90
2018-07-30T01:22:50.416Z,99.90
2018-07-30T01:25:18.981Z,99.90
2018-07-30T01:27:47.536Z,99.90
2018-07-30T01:30:16.252Z,99.90
2018-07-30T01:32:44.938Z,99.90
2018-07-30T01:35:13.569Z,99.90
2018-07-30T01:37:42.110Z,99.90
2018-07-30T01:40:10.597Z,99.90
2018-07-30T01:42:39.181Z,99.90
2018-07-30T01:45:07.787Z,99.90
2018-07-30T01:47:36.293Z,99.90
2018-07-30T01:55:01.453Z,99.90
2018-07-30T01:57:30.002Z,99.90
2018-07-30T01:59:58.597Z,99.90
2018-07-30T02:02:27.171Z,99.90
2018-07-30T02:04:55.757Z,99.90
2018-07-30T02:07:24.345Z,99.90
2018-07-30T02:09:52.918Z,99.90
2018-07-30T02:12:21.505Z,99.90
2018-07-30T02:14:49.999Z,99.90
2018-07-30T02:17:18.548Z,99.90
2018-07-30T02:19:47.146Z,99.90
2018-07-30T02:22:15.737Z,99.90
2018-07-30T02:24:44.228Z,99.90
2018-07-30T02:27:12.795Z,99.90
2018-07-30T02:29:41.342Z,99.90
2018-07-30T02:32:09.918Z,99.90
2018-07-30T02:34:38.482Z,99.90
2018-07-30T02:37:07.086Z,99.90
2018-07-30T02:39:35.651Z,99.90
2018-07-30T02:44:32.480Z,99.90
2018-07-30T02:47:01.021Z,99.90
2018-07-30T02:49:29.537Z,99.90
2018-07-30T02:51:58.136Z,99.90
2018-07-30T02:54:26.653Z,99.90
2018-07-30T02:56:55.221Z,99.90
2018-07-30T03:01:52.024Z,99.90
2018-07-30T03:04:20.548Z,99.90
2018-07-30T03:06:49.118Z,99.90
2018-07-30T03:09:17.663Z,99.90
2018-07-30T03:11:46.524Z,99.90
2018-07-30T03:14:15.069Z,99.90
2018-07-30T03:16:43.604Z,99.90
2018-07-30T03:19:12.159Z,99.90
2018-07-30T03:21:40.654Z,99.90
2018-07-30T03:24:09.243Z,99.90
2018-07-30T03:29:06.082Z,99.90
2018-07-30T03:31:34.630Z,99.90
2018-07-30T03:34:03.206Z,99.90
2018-07-30T03:36:31.742Z,99.90
2018-07-30T03:39:00.276Z,99.90
2018-07-30T03:41:28.792Z,99.90
2018-07-30T03:43:57.313Z,99.90
2018-07-30T03:46:25.849Z,99.90
2018-07-30T03:48:54.405Z,99.90
2018-07-30T03:51:22.978Z,99.90
2018-07-30T03:53:51.528Z,99.90
2018-07-30T03:56:20.076Z,99.90
2018-07-30T03:58:48.605Z,99.90
2018-07-30T04:01:17.131Z,99.90
2018-07-30T04:03:45.682Z,99.90
2018-07-30T04:06:14.293Z,99.90
2018-07-30T04:08:42.809Z,99.90
2018-07-30T04:11:11.293Z,99.90
2018-07-30T04:13:39.824Z,99.90
2018-07-30T04:16:08.345Z,99.90
2018-07-30T04:18:36.902Z,99.90
2018-07-30T04:21:05.461Z,99.90
2018-07-30T04:23:33.970Z,99.90
2018-07-30T04:26:02.518Z,99.90
2018-07-30T04:28:31.034Z,99.90
2018-07-30T04:30:59.625Z,99.90
2018-07-30T04:33:28.169Z,99.90
2018-07-30T04:38:24.965Z,99.90
2018-07-30T04:40:53.547Z,99.90
2018-07-30T04:43:22.101Z,99.90
2018-07-30T04:45:50.640Z,99.90
2018-07-30T04:48:19.209Z,99.90
2018-07-30T04:50:47.709Z,99.90
2018-07-30T04:53:16.259Z,99.90
2018-07-30T04:55:44.804Z,99.90
2018-07-30T04:58:13.315Z,99.90
2018-07-30T05:00:41.862Z,99.90
2018-07-30T05:03:10.392Z,99.90
2018-07-30T05:05:39.174Z,99.90
2018-07-30T05:08:07.780Z,99.90
2018-07-30T05:10:36.361Z,99.90
2018-07-30T05:13:04.932Z,99.90
2018-07-30T05:15:33.476Z,99.90
2018-07-30T05:18:02.008Z,99.90
2018-07-30T05:20:30.545Z,99.90
2018-07-30T05:22:59.131Z,99.90
2018-07-30T05:25:27.635Z,99.90
2018-07-30T05:27:56.181Z,99.90
2018-07-30T05:30:24.729Z,99.90
2018-07-30T05:32:53.221Z,99.90
2018-07-30T05:35:21.761Z,99.90
2018-07-30T05:37:50.291Z,99.90
2018-07-30T05:40:18.850Z,99.90
2018-07-30T05:42:47.480Z,99.90
2018-07-30T05:45:15.970Z,99.90
2018-07-30T05:47:44.540Z,99.90
2018-07-30T05:50:13.074Z,99.90
2018-07-30T05:52:41.622Z,99.90
2018-07-30T05:55:10.173Z,99.90
2018-07-30T05:57:38.733Z,99.90
2018-07-30T06:00:08.011Z,99.90
2018-07-30T06:02:36.562Z,99.90
2018-07-30T06:05:06.673Z,99.90
2018-07-30T06:07:35.578Z,99.90
2018-07-30T06:10:04.865Z,99.90
2018-07-30T06:12:33.471Z,99.90
2018-07-30T06:15:02.046Z,99.90
2018-07-30T06:17:30.622Z,99.90
2018-07-30T06:19:59.178Z,99.90
2018-07-30T06:22:27.702Z,99.90
2018-07-30T06:24:56.244Z,99.90
2018-07-30T06:27:24.873Z,99.90
2018-07-30T06:29:53.422Z,99.90
2018-07-30T06:32:22.085Z,99.90
2018-07-30T06:34:50.644Z,99.90
2018-07-30T06:37:19.486Z,99.90
2018-07-30T06:39:48.022Z,99.90
2018-07-30T06:42:16.603Z,99.90
2018-07-30T06:44:45.209Z,99.90
2018-07-30T06:47:13.846Z,99.90
2018-07-30T06:49:42.722Z,99.90
2018-07-30T06:52:11.447Z,99.90
2018-07-30T06:54:39.945Z,99.90
2018-07-30T06:57:08.508Z,99.90
2018-07-30T06:59:37.017Z,99.90
2018-07-30T07:04:34.015Z,99.90
2018-07-30T07:07:02.786Z,99.90
2018-07-30T07:09:31.433Z,99.90
2018-07-30T07:11:59.938Z,99.90
2018-07-30T07:14:28.498Z,99.90
2018-07-30T07:16:57.129Z,99.90
2018-07-30T07:19:25.677Z,99.90
2018-07-30T07:21:54.269Z,99.90
2018-07-30T07:26:51.072Z,99.90
2018-07-30T07:29:19.573Z,99.90
2018-07-30T07:31:48.131Z,99.90
2018-07-30T07:34:16.663Z,99.90
2018-07-30T07:36:45.235Z,99.90
2018-07-30T07:39:13.769Z,99.90
2018-07-30T07:41:42.315Z,99.90
2018-07-30T07:44:10.908Z,99.90
2018-07-30T07:49:07.654Z,99.90
2018-07-30T07:51:36.244Z,99.90
2018-07-30T07:54:04.973Z,99.90
2018-07-30T07:56:33.613Z,99.90
2018-07-30T07:59:02.193Z,99.90
2018-07-30T08:01:30.820Z,99.90
2018-07-30T08:03:59.615Z,99.90
2018-07-30T08:06:28.221Z,99.90
2018-07-30T08:08:56.786Z,99.90
2018-07-30T08:11:25.327Z,99.90
2018-07-30T08:13:54.048Z,99.90
2018-07-30T08:16:22.686Z,99.90
2018-07-30T08:18:51.189Z,99.90
2018-07-30T08:21:19.801Z,99.90
2018-07-30T08:23:48.398Z,99.90
2018-07-30T08:26:16.922Z,99.90
2018-07-30T08:28:45.450Z,99.90
2018-07-30T08:31:14.079Z,99.90
2018-07-30T08:33:42.606Z,99.90
2018-07-30T08:36:11.175Z,99.90
2018-07-30T08:41:08.025Z,99.90
2018-07-30T08:43:36.686Z,99.90
2018-07-30T08:46:05.275Z,99.90
2018-07-30T08:48:34.046Z,99.90
2018-07-30T08:51:02.729Z,99.90
2018-07-30T08:53:31.253Z,99.90
2018-07-30T08:55:59.832Z,99.90
2018-07-30T08:58:28.409Z,99.90
2018-07-30T09:00:56.940Z,99.90
2018-07-30T09:03:25.505Z,99.90
2018-07-30T09:08:22.890Z,99.90
2018-07-30T09:10:51.477Z,99.90
2018-07-30T09:13:20.023Z,99.90
2018-07-30T09:15:48.577Z,99.90
2018-07-30T09:18:17.156Z,99.90
2018-07-30T09:20:45.673Z,99.90
2018-07-30T09:23:14.160Z,99.90
2018-07-30T09:25:42.737Z,99.90
2018-07-30T09:28:11.298Z,99.90
2018-07-30T09:30:39.869Z,99.90
2018-07-30T09:33:08.841Z,99.90
2018-07-30T09:35:37.286Z,99.90
2018-07-30T09:38:05.850Z,99.90
2018-07-30T09:40:34.365Z,99.90
2018-07-30T09:43:02.970Z,99.90
2018-07-30T09:45:31.536Z,99.90
2018-07-30T09:48:00.114Z,99.90
2018-07-30T09:50:28.752Z,99.90
2018-07-30T09:55:25.468Z,99.90
2018-07-30T10:00:27.503Z,99.90
2018-07-30T10:02:56.059Z,99.90
2018-07-30T10:05:24.614Z,99.90
2018-07-30T10:07:53.353Z,99.90
2018-07-30T10:10:22.018Z,99.90
2018-07-30T10:12:50.539Z,99.90
2018-07-30T10:15:19.057Z,99.90
2018-07-30T10:17:47.955Z,99.90
2018-07-30T10:20:16.521Z,99.90
2018-07-30T10:22:45.428Z,99.90
2018-07-30T10:25:13.929Z,99.90
2018-07-30T10:27:42.535Z,99.90
2018-07-30T10:30:11.109Z,99.90
2018-07-30T10:32:39.704Z,99.90
2018-07-30T10:35:08.290Z,99.90
2018-07-30T10:37:36.874Z,99.90
2018-07-30T10:40:05.446Z,99.90
2018-07-30T10:42:33.976Z,99.90
2018-07-30T10:45:02.551Z,99.90
2018-07-30T10:47:31.200Z,99.90
2018-07-30T10:49:59.754Z,99.90
2018-07-30T10:52:28.285Z,99.90
2018-07-30T10:54:57.068Z,99.90
2018-07-30T10:57:25.629Z,99.90
2018-07-30T10:59:54.151Z,99.90
2018-07-30T11:02:22.950Z,99.90
2018-07-30T11:04:51.461Z,99.90
2018-07-30T11:09:48.297Z,99.90
2018-07-30T11:12:16.809Z,99.90
2018-07-30T11:14:45.323Z,99.90
2018-07-30T11:17:13.884Z,99.70
2018-07-30T11:19:42.448Z,99.40
2018-07-30T11:22:11.069Z,99.90
2018-07-30T11:24:39.617Z,99.90
2018-07-30T11:27:08.128Z,99.90
2018-07-30T11:29:36.666Z,99.90
2018-07-30T11:32:05.177Z,99.00
2018-07-30T11:37:02.224Z,98.10
2018-07-30T11:39:30.772Z,99.50
2018-07-30T11:41:59.293Z,98.10
2018-07-30T11:46:56.067Z,98.20
2018-07-30T11:49:24.646Z,96.30
2018-07-30T11:51:53.150Z,96.80
2018-07-30T11:54:22.016Z,96.30
2018-07-30T11:56:50.554Z,96.70
2018-07-30T11:59:19.066Z,96.30
2018-07-30T12:01:47.911Z,94.40
2018-07-30T12:04:16.449Z,94.10
2018-07-30T12:06:44.988Z,94.00
2018-07-30T12:09:13.672Z,93.60
2018-07-30T12:11:42.186Z,94.40
2018-07-30T12:14:10.679Z,93.00
2018-07-30T12:16:39.212Z,92.20
2018-07-30T12:19:07.735Z,91.20
2018-07-30T12:21:36.321Z,90.40
2018-07-30T12:24:04.895Z,90.80
2018-07-30T12:26:33.519Z,90.00
2018-07-30T12:31:30.336Z,83.90
2018-07-30T12:33:58.942Z,86.30
2018-07-30T12:36:27.630Z,86.40
2018-07-30T12:41:24.408Z,84.30
2018-07-30T12:48:50.118Z,82.40
2018-07-30T12:51:18.660Z,83.30
2018-07-30T12:53:47.183Z,85.00
2018-07-30T12:56:15.667Z,81.40
2018-07-30T12:58:44.188Z,79.90
2018-07-30T13:01:12.757Z,81.10
2018-07-30T13:03:41.297Z,78.30
2018-07-30T13:06:09.853Z,80.60
2018-07-30T13:08:38.331Z,79.00
2018-07-30T13:11:06.873Z,78.00
2018-07-30T13:13:35.377Z,78.70
2018-07-30T13:16:03.937Z,77.30
2018-07-30T13:18:32.503Z,76.60
2018-07-30T13:21:01.071Z,74.90
2018-07-30T13:23:29.612Z,74.30
2018-07-30T13:28:26.360Z,73.20
2018-07-30T13:30:54.874Z,71.80
2018-07-30T13:33:23.410Z,72.90
2018-07-30T13:35:51.957Z,72.20
2018-07-30T13:38:20.473Z,72.40
2018-07-30T13:40:48.973Z,71.40
2018-07-30T13:43:17.528Z,71.70
2018-07-30T13:45:46.021Z,70.00
2018-07-30T13:48:14.605Z,69.50
2018-07-30T13:50:43.112Z,70.10
2018-07-30T13:53:11.697Z,70.90
2018-07-30T13:55:40.248Z,71.90
2018-07-30T13:58:08.773Z,71.90
2018-07-30T14:03:05.934Z,72.40
2018-07-30T14:05:34.491Z,71.30
2018-07-30T14:08:03.053Z,71.00
2018-07-30T14:10:31.609Z,72.60
2018-07-30T14:15:28.423Z,73.00
2018-07-30T14:17:57.296Z,72.90
2018-07-30T14:20:25.841Z,73.40
2018-07-30T14:22:54.442Z,73.10
2018-07-30T14:25:22.981Z,73.20
2018-07-30T17:50:26.716Z,57.70
2018-07-30T17:52:55.256Z,60.00
2018-07-30T17:55:24.003Z,59.60
2018-07-30T17:57:52.545Z,61.80
2018-07-30T18:00:21.405Z,61.50
2018-07-30T18:02:50.412Z,62.30
2018-07-30T18:05:19.942Z,64.10
2018-07-30T18:07:49.752Z,65.90
2018-07-30T18:10:20.503Z,67.20
2018-07-30T18:12:49.025Z,68.10
2018-07-30T18:15:17.529Z,68.70
2018-07-30T18:17:46.045Z,69.30
2018-07-30T18:20:14.595Z,71.70
2018-07-30T18:22:43.128Z,72.70
2018-07-30T18:25:11.674Z,72.00
2018-07-30T18:27:40.202Z,71.60
2018-07-30T18:30:08.743Z,68.60
2018-07-30T18:32:37.405Z,68.20
2018-07-30T18:35:05.915Z,69.30
2018-07-30T18:37:34.475Z,70.00
2018-07-30T18:40:03.055Z,69.10
2018-07-30T18:42:31.601Z,68.30
2018-07-30T18:45:00.148Z,69.40
2018-07-30T18:47:28.625Z,72.60
2018-07-30T18:49:57.139Z,74.70
2018-07-30T18:52:25.640Z,75.50
2018-07-30T18:54:54.115Z,75.80
2018-07-30T18:57:22.668Z,76.90
2018-07-30T18:59:51.161Z,77.60
2018-07-30T19:02:19.685Z,78.70
2018-07-30T19:04:48.205Z,80.80
2018-07-30T19:07:16.692Z,81.20
2018-07-30T19:09:45.179Z,82.80
2018-07-30T19:12:13.723Z,82.30
2018-07-30T19:14:42.318Z,82.40
2018-07-30T19:17:10.847Z,82.80
2018-07-30T19:19:39.315Z,83.30
2018-07-30T19:22:07.857Z,84.10
2018-07-30T19:24:36.371Z,84.80
2018-07-30T19:27:04.888Z,85.30
2018-07-30T19:29:33.401Z,88.10
2018-07-30T19:32:01.962Z,89.80
2018-07-30T19:34:30.546Z,90.50
2018-07-30T19:39:27.274Z,91.40
2018-07-30T19:41:55.751Z,91.80
2018-07-30T19:44:24.322Z,92.60
2018-07-30T19:46:52.783Z,92.90
2018-07-30T19:49:21.282Z,93.40
2018-07-30T19:51:49.802Z,93.70
2018-07-30T19:56:46.867Z,94.50
2018-07-30T20:01:43.649Z,95.70
2018-07-30T20:04:13.019Z,96.10
2018-07-30T20:06:41.544Z,96.40
2018-07-30T20:09:11.693Z,96.70
2018-07-30T20:11:40.233Z,97.30
2018-07-30T20:14:08.728Z,97.90
2018-07-30T20:16:37.418Z,98.70
2018-07-30T20:19:06.016Z,98.70
2018-07-30T20:21:34.575Z,99.30
2018-07-30T20:24:03.047Z,99.90
2018-07-30T20:28:59.763Z,99.90
2018-07-30T20:31:28.311Z,99.90
2018-07-30T20:33:58.041Z,99.90
2018-07-30T20:36:26.543Z,99.90
2018-07-30T20:38:55.198Z,99.90
2018-07-30T20:41:24.228Z,99.90
2018-07-30T20:43:53.423Z,99.90
2018-07-30T20:46:22.123Z,99.90
2018-07-30T20:48:50.827Z,99.90
2018-07-30T20:53:47.554Z,99.90
2018-07-30T20:56:16.073Z,99.90
2018-07-30T20:58:44.561Z,99.90
2018-07-30T21:01:13.171Z,99.90
2018-07-30T21:03:41.793Z,99.90
2018-07-30T21:06:10.276Z,99.90
2018-07-30T21:08:38.873Z,99.90
2018-07-30T21:11:07.432Z,99.90
2018-07-30T21:13:35.994Z,99.90
2018-07-30T21:16:04.559Z,99.90
2018-07-30T21:18:33.274Z,99.90
2018-07-30T21:21:01.945Z,99.90
2018-07-30T21:23:30.504Z,99.90
2018-07-30T21:25:58.999Z,99.90
2018-07-30T21:28:27.724Z,99.90
2018-07-30T21:30:56.392Z,99.90
2018-07-30T21:33:24.944Z,99.90
2018-07-30T21:35:53.495Z,99.90
2018-07-30T21:38:22.051Z,99.90
2018-07-30T21:40:50.563Z,99.90
2018-07-30T21:43:19.330Z,99.90
2018-07-30T21:45:47.879Z,99.90
2018-07-30T21:48:16.778Z,99.90
2018-07-30T21:50:45.358Z,99.90
2018-07-30T21:53:13.862Z,99.90
2018-07-30T21:55:42.732Z,99.90
2018-07-30T21:58:11.228Z,99.90
2018-07-30T22:00:39.792Z,99.90
2018-07-30T22:03:09.795Z,99.90
2018-07-30T22:05:38.321Z,99.90
2018-07-30T22:08:06.852Z,99.90
2018-07-30T22:13:04.624Z,99.90
2018-07-30T22:15:33.125Z,99.90
2018-07-30T22:18:01.875Z,99.90
2018-07-30T22:20:30.624Z,99.90
2018-07-30T22:22:59.473Z,99.90
2018-07-30T22:25:27.945Z,99.90
2018-07-30T22:27:56.490Z,99.90
2018-07-30T22:30:24.941Z,99.90
2018-07-30T22:32:54.541Z,99.90
2018-07-30T22:35:23.671Z,99.90
2018-07-30T22:37:52.784Z,99.90
2018-07-30T22:40:22.341Z,99.90
2018-07-30T22:45:21.835Z,99.90
2018-07-30T22:47:50.363Z,99.90
2018-07-30T22:50:19.146Z,99.90
2018-07-30T22:52:47.698Z,99.90
2018-07-30T22:55:16.756Z,99.90
2018-07-30T22:57:46.214Z,99.90
2018-07-30T23:00:15.088Z,99.90
2018-07-30T23:02:45.357Z,99.90
2018-07-30T23:05:14.106Z,99.90
2018-07-30T23:07:43.733Z,99.90
2018-07-30T23:10:12.243Z,99.90
2018-07-30T23:12:40.743Z,99.90
2018-07-30T23:15:11.527Z,99.90
2018-07-30T23:17:40.770Z,99.90
2018-07-30T23:20:09.392Z,99.90
2018-07-30T23:22:37.846Z,99.90
2018-07-30T23:25:06.353Z,99.90
2018-07-30T23:27:36.311Z,99.90
2018-07-30T23:30:05.659Z,99.90
2018-07-30T23:32:34.642Z,99.90
2018-07-30T23:35:03.151Z,99.90
2018-07-30T23:37:31.669Z,99.90
2018-07-30T23:40:00.127Z,99.90
2018-07-30T23:44:57.584Z,99.90
2018-07-30T23:47:26.205Z,99.90
2018-07-30T23:49:54.629Z,99.90
2018-07-30T23:52:23.114Z,99.90
2018-07-30T23:54:51.628Z,99.90
2018-07-30T23:57:20.116Z,99.90
2018-07-30T23:59:48.611Z,99.90
